Time;durP1;ratioP1;P1;durP2;ratioP2;P2;SDS_P1;SDS_P2;PMS_P1;PMS_P2;Temp;Humidity;BMP_temperature;BMP_pressure;BME280_temperature;BME280_humidity;BME280_pressure;Samples;Min_cycle;Max_cycle;Signal;HPM_P1;HPM_P2
2022/02/08 00:01:40;;;;;;;14.65;4.38;;;1.60;99.90;;;;;;5069800;28;20036;-67
2022/02/08 00:04:09;;;;;;;10.70;3.38;;;1.60;99.90;;;;;;5069605;28;20055;-65
2022/02/08 00:06:44;;;;;;;13.05;3.72;;;1.60;99.90;;;;;;5068746;28;20048;-66
2022/02/08 00:09:14;;;;;;;12.45;3.75;;;1.60;99.90;;;;;;5065989;28;20530;-67
2022/02/08 00:11:41;;;;;;;7.43;2.83;;;1.60;99.90;;;;;;5047103;28;20047;-66
2022/02/08 00:14:09;;;;;;;13.98;3.33;;;1.60;99.90;;;;;;5062416;28;20045;-67
2022/02/08 00:16:36;;;;;;;16.20;3.25;;;1.50;99.90;;;;;;5061793;28;20063;-67
2022/02/08 00:19:04;;;;;;;12.82;3.78;;;1.50;99.90;;;;;;5069928;28;20491;-66
2022/02/08 00:21:32;;;;;;;11.88;3.88;;;1.50;99.90;;;;;;5063009;28;20048;-64
2022/02/08 00:24:00;;;;;;;12.75;3.15;;;1.40;99.90;;;;;;5070121;28;20067;-66
2022/02/08 00:26:27;;;;;;;13.80;3.20;;;1.50;99.90;;;;;;5063223;28;20399;-67
2022/02/08 00:28:55;;;;;;;13.57;3.28;;;1.50;99.90;;;;;;5070541;28;20049;-67
2022/02/08 00:31:22;;;;;;;15.68;3.60;;;1.50;99.90;;;;;;5062085;28;20180;-67
2022/02/08 00:33:51;;;;;;;11.77;3.22;;;1.50;99.90;;;;;;5044717;28;20036;-67
2022/02/08 00:36:19;;;;;;;12.43;3.35;;;1.50;99.90;;;;;;5051932;28;20395;-65
2022/02/08 00:38:48;;;;;;;8.10;2.83;;;1.50;99.90;;;;;;5062583;28;20052;-67
2022/02/08 00:41:16;;;;;;;12.68;2.78;;;1.50;99.90;;;;;;5063150;28;20098;-67
2022/02/08 00:46:20;;;;;;;13.27;3.13;;;1.60;99.90;;;;;;5069236;28;20043;-65
2022/02/08 00:48:57;;;;;;;11.32;3.00;;;1.70;99.90;;;;;;5051469;28;20498;-65
2022/02/08 00:51:27;;;;;;;12.98;3.47;;;1.70;99.90;;;;;;5048777;28;20041;-67
2022/02/08 00:53:54;;;;;;;22.33;3.25;;;1.70;99.90;;;;;;5070087;28;20044;-67
2022/02/08 00:56:24;;;;;;;14.07;2.97;;;1.80;99.90;;;;;;5051968;28;20044;-67
2022/02/08 00:58:51;;;;;;;7.35;2.33;;;1.70;99.90;;;;;;5051397;28;20036;-67
2022/02/08 01:01:19;;;;;;;11.90;2.97;;;1.80;99.90;;;;;;5051422;28;20090;-67
2022/02/08 01:03:46;;;;;;;11.55;3.13;;;1.80;99.90;;;;;;5054613;28;20051;-66
2022/02/08 01:06:16;;;;;;;13.30;3.53;;;1.80;99.90;;;;;;5056672;28;20094;-66
2022/02/08 01:08:43;;;;;;;8.45;3.03;;;1.90;99.90;;;;;;5069554;28;20048;-67
2022/02/08 01:11:12;;;;;;;11.55;2.55;;;2.00;99.90;;;;;;5069954;28;20414;-67
2022/02/08 01:13:41;;;;;;;15.10;3.33;;;2.00;99.90;;;;;;5032184;28;20045;-67
2022/02/08 01:16:08;;;;;;;11.95;3.22;;;2.00;99.90;;;;;;5068378;28;20044;-66
2022/02/08 01:18:40;;;;;;;10.25;2.80;;;2.00;99.90;;;;;;5085576;28;20505;-66
2022/02/08 01:21:08;;;;;;;;;;;2.10;99.90;;;;;;5085981;28;20040;-67
2022/02/08 01:23:35;;;;;;;11.90;2.83;;;2.00;99.90;;;;;;5050316;28;19944;-66
2022/02/08 01:26:10;;;;;;;10.45;3.10;;;2.00;99.90;;;;;;5068703;28;20052;-67
2022/02/08 01:28:48;;;;;;;9.85;2.80;;;2.00;99.90;;;;;;5061195;28;20045;-68
2022/02/08 01:31:17;;;;;;;13.38;2.63;;;2.20;99.90;;;;;;5071380;28;20044;-67
2022/02/08 01:36:43;;;;;;;16.67;3.20;;;2.10;99.90;;;;;;5051504;28;20059;-67
2022/02/08 01:44:32;;;;;;;10.30;2.95;;;2.20;99.90;;;;;;5068361;28;20499;-66
2022/02/08 01:47:13;;;;;;;13.00;2.70;;;2.20;99.90;;;;;;5055229;28;20499;-66
2022/02/08 01:50:10;;;;;;;10.65;3.10;;;2.30;99.90;;;;;;5037496;28;20480;-65
2022/02/08 01:52:40;;;;;;;13.13;2.90;;;2.30;99.90;;;;;;5044657;28;20056;-67
2022/02/08 01:55:11;;;;;;;13.27;2.65;;;2.40;99.90;;;;;;5068942;28;20541;-66
2022/02/08 01:57:41;;;;;;;13.63;2.75;;;2.30;99.90;;;;;;5063910;28;20522;-66
2022/02/08 02:00:10;;;;;;;13.48;3.35;;;2.30;99.90;;;;;;5072809;28;20044;-66
2022/02/08 02:02:41;;;;;;;13.85;3.15;;;2.40;99.90;;;;;;5070443;28;20036;-65
2022/02/08 02:05:15;;;;;;;12.40;3.00;;;2.30;99.90;;;;;;5042498;28;20111;-66
2022/02/08 02:07:48;;;;;;;9.55;2.45;;;2.30;99.90;;;;;;5046322;28;20065;-66
2022/02/08 02:10:19;;;;;;;9.20;3.78;;;2.30;99.90;;;;;;5062479;28;20040;-65
2022/02/08 02:12:59;;;;;;;11.70;3.38;;;2.30;99.90;;;;;;5053551;28;20845;-67
2022/02/08 02:15:37;;;;;;;12.38;2.90;;;2.30;99.90;;;;;;5051236;28;20036;-67
2022/02/08 02:18:04;;;;;;;12.65;3.65;;;2.40;99.90;;;;;;5067510;28;20515;-67
2022/02/08 02:20:33;;;;;;;8.98;2.63;;;2.40;99.90;;;;;;5053856;28;20043;-66
2022/02/08 02:23:01;;;;;;;10.52;2.67;;;2.40;99.90;;;;;;5053323;28;20032;-66
2022/02/08 02:25:31;;;;;;;7.35;2.30;;;2.40;99.90;;;;;;5046052;28;20050;-66
2022/02/08 02:28:01;;;;;;;14.43;3.08;;;2.40;99.90;;;;;;5049992;28;20101;-67
2022/02/08 02:30:31;;;;;;;8.38;2.80;;;2.40;99.90;;;;;;5053212;28;20049;-67
2022/02/08 02:33:03;;;;;;;9.30;2.72;;;2.30;99.90;;;;;;5051851;28;20036;-65
2022/02/08 02:35:32;;;;;;;11.40;2.70;;;2.40;99.90;;;;;;5053604;28;20428;-66
2022/02/08 02:38:05;;;;;;;10.63;2.92;;;2.40;99.90;;;;;;5053231;28;20558;-66
2022/02/08 02:40:36;;;;;;;10.07;2.40;;;2.40;99.90;;;;;;5053122;28;20056;-66
2022/02/08 02:43:07;;;;;;;8.68;2.60;;;2.40;99.90;;;;;;5051091;28;20098;-66
2022/02/08 02:45:35;;;;;;;14.63;2.88;;;2.40;99.90;;;;;;5055203;28;20056;-67
2022/02/08 02:48:04;;;;;;;10.10;2.30;;;2.40;99.90;;;;;;5053277;28;20097;-66
2022/02/08 02:50:39;;;;;;;10.65;2.50;;;2.40;99.90;;;;;;5038249;28;20123;-67
2022/02/08 02:53:07;;;;;;;11.90;3.05;;;2.50;99.90;;;;;;5052771;28;20067;-66
2022/02/08 02:55:35;;;;;;;9.68;2.60;;;2.50;99.90;;;;;;5072085;28;20078;-66
2022/02/08 02:58:06;;;;;;;9.38;2.70;;;2.50;99.90;;;;;;5072423;28;20045;-67
2022/02/08 03:00:46;;;;;;;10.55;2.55;;;2.50;99.90;;;;;;5054097;28;20045;-67
2022/02/08 03:03:42;;;;;;;13.00;2.50;;;2.60;99.90;;;;;;5070391;28;20597;-68
2022/02/08 03:19:45;;;;;;;11.80;2.38;;;2.70;99.90;;;;;;5053737;28;20044;-67
2022/02/08 03:22:13;;;;;;;6.82;2.58;;;2.70;99.90;;;;;;5046220;28;20132;-67
2022/02/08 03:24:41;;;;;;;9.32;2.80;;;2.70;99.90;;;;;;5050724;28;20047;-68
2022/02/08 03:27:08;;;;;;;12.00;2.53;;;2.70;99.90;;;;;;5043707;28;20562;-66
2022/02/08 03:29:36;;;;;;;10.52;2.42;;;2.70;99.90;;;;;;5053514;28;20571;-66
2022/02/08 03:32:04;;;;;;;12.75;2.50;;;2.80;99.90;;;;;;5044195;28;20068;-67
2022/02/08 03:34:33;;;;;;;11.05;2.58;;;2.80;99.90;;;;;;5052294;28;20040;-66
2022/02/08 03:37:00;;;;;;;11.73;2.60;;;2.80;99.90;;;;;;5035642;28;20133;-67
2022/02/08 03:39:36;;;;;;;9.90;2.50;;;2.90;99.90;;;;;;5051021;28;20091;-67
2022/02/08 03:42:21;;;;;;;11.23;2.42;;;2.90;99.90;;;;;;5042650;28;20045;-67
2022/02/08 03:44:55;;;;;;;10.70;2.30;;;2.90;99.90;;;;;;5065885;28;20036;-65
2022/02/08 03:47:25;;;;;;;10.60;2.20;;;2.90;99.90;;;;;;5051592;28;20036;-67
2022/02/08 03:49:56;;;;;;;9.25;2.50;;;2.90;99.90;;;;;;5052181;28;20561;-67
2022/02/08 03:52:24;;;;;;;12.27;2.53;;;3.00;99.90;;;;;;5050687;28;20051;-66
2022/02/08 03:54:54;;;;;;;11.95;2.20;;;3.00;99.90;;;;;;5049030;28;20114;-66
2022/02/08 03:57:24;;;;;;;9.73;2.40;;;2.90;99.90;;;;;;5036618;28;20507;-66
2022/02/08 03:59:54;;;;;;;8.70;2.20;;;2.90;99.90;;;;;;5051805;28;20041;-67
2022/02/08 04:02:33;;;;;;;6.78;2.20;;;2.90;99.90;;;;;;5051279;28;20045;-66
2022/02/08 04:05:09;;;;;;;13.25;2.65;;;3.00;99.90;;;;;;5069352;28;20109;-66
2022/02/08 04:07:43;;;;;;;11.20;2.33;;;3.00;99.90;;;;;;5068806;28;20033;-68
2022/02/08 04:10:18;;;;;;;14.07;2.53;;;2.90;99.90;;;;;;5068376;28;20124;-67
2022/02/08 04:12:58;;;;;;;10.85;2.55;;;2.90;99.90;;;;;;5066948;28;20044;-67
2022/02/08 04:42:43;;;;;;;6.70;2.30;;;3.10;99.90;;;;;;5004014;28;20073;-67
2022/02/08 04:47:47;;;;;;;6.40;2.30;;;3.10;99.90;;;;;;5006067;28;20099;-67
2022/02/08 04:50:17;;;;;;;11.82;2.30;;;3.10;99.90;;;;;;5007702;28;20057;-67
2022/02/08 04:52:45;;;;;;;10.82;2.55;;;3.10;99.90;;;;;;4989982;28;20548;-67
2022/02/08 04:58:04;;;;;;;10.75;2.67;;;3.00;99.90;;;;;;5000556;28;20042;-67
2022/02/08 05:00:45;;;;;;;11.75;2.70;;;3.00;99.90;;;;;;5003236;28;20561;-67
2022/02/08 05:40:50;;;;;;;12.15;2.30;;;3.30;99.90;;;;;;4967056;28;20050;-66
2022/02/08 05:42:21;;;;;;;13.15;3.55;;;3.30;99.90;;;;;;4962475;28;20142;-67
2022/02/08 05:44:56;;;;;;;9.00;2.63;;;3.20;99.90;;;;;;4948401;28;20092;-68
2022/02/08 05:47:24;;;;;;;12.80;2.33;;;3.30;99.90;;;;;;4965325;28;20145;-67
2022/02/08 05:50:05;;;;;;;14.48;2.80;;;3.30;99.90;;;;;;4951692;28;20058;-67
2022/02/08 05:52:46;;;;;;;8.32;2.50;;;3.40;99.90;;;;;;4949873;28;20051;-68
2022/02/08 05:55:14;;;;;;;10.75;2.97;;;3.40;99.90;;;;;;4965305;28;20687;-67
2022/02/08 05:57:41;;;;;;;8.13;2.20;;;3.40;99.90;;;;;;4967674;28;20062;-67
2022/02/08 06:00:11;;;;;;;9.50;2.42;;;3.40;99.90;;;;;;4966085;28;20407;-67
2022/02/08 06:02:49;;;;;;;17.38;2.72;;;3.40;99.90;;;;;;4955992;28;20039;-67
2022/02/08 06:05:23;;;;;;;12.27;2.50;;;3.40;99.90;;;;;;4967446;28;20077;-68
2022/02/08 06:07:51;;;;;;;9.18;2.70;;;3.40;99.90;;;;;;5031832;28;20041;-68
2022/02/08 06:10:18;;;;;;;12.10;2.90;;;3.40;99.90;;;;;;5056981;28;20041;-67
2022/02/08 06:12:52;;;;;;;8.70;2.28;;;3.50;99.90;;;;;;5059620;28;20053;-67
2022/02/08 06:15:26;;;;;;;11.88;3.30;;;3.40;99.90;;;;;;5053506;28;20044;-67
2022/02/08 06:17:57;;;;;;;10.45;2.88;;;3.40;99.90;;;;;;5053308;28;20407;-66
2022/02/08 06:20:26;;;;;;;10.43;2.70;;;3.40;99.90;;;;;;5037438;28;20119;-67
2022/02/08 06:22:53;;;;;;;14.45;2.97;;;3.40;99.90;;;;;;5056718;28;20411;-67
2022/02/08 06:25:21;;;;;;;13.85;2.40;;;3.40;99.90;;;;;;5061809;28;20441;-66
2022/02/08 06:27:50;;;;;;;18.23;4.57;;;3.40;99.90;;;;;;5056329;28;20056;-67
2022/02/08 06:30:21;;;;;;;13.13;2.50;;;3.40;99.90;;;;;;5071737;28;20051;-67
2022/02/08 06:32:54;;;;;;;10.35;2.60;;;3.50;99.90;;;;;;5086345;28;20060;-67
2022/02/08 06:35:26;;;;;;;13.98;2.75;;;3.50;99.90;;;;;;5071926;28;20517;-67
2022/02/08 06:37:57;;;;;;;9.38;2.70;;;3.60;99.90;;;;;;5071798;28;20428;-67
2022/02/08 06:40:25;;;;;;;11.10;2.70;;;3.60;99.90;;;;;;5071838;28;20135;-67
2022/02/08 06:42:58;;;;;;;12.05;2.38;;;3.60;99.90;;;;;;5058071;28;20049;-68
2022/02/08 06:45:26;;;;;;;14.50;3.17;;;3.50;99.90;;;;;;5072338;28;20441;-68
2022/02/08 06:47:57;;;;;;;11.57;2.75;;;3.50;99.90;;;;;;5054123;28;20057;-68
2022/02/08 06:50:25;;;;;;;14.90;2.95;;;3.50;99.90;;;;;;5053412;28;20372;-68
2022/02/08 06:52:53;;;;;;;11.38;2.90;;;3.50;99.90;;;;;;5023228;28;20055;-68
2022/02/08 06:55:21;;;;;;;13.80;2.65;;;3.50;99.90;;;;;;5022727;28;20063;-68
2022/02/08 06:57:58;;;;;;;16.20;3.42;;;3.60;99.90;;;;;;5056683;28;20442;-68
2022/02/08 07:00:48;;;;;;;15.50;3.45;;;3.60;99.90;;;;;;5051953;28;20396;-68
2022/02/08 07:03:17;;;;;;;8.80;2.50;;;3.60;99.90;;;;;;5036218;28;20407;-68
2022/02/08 07:05:44;;;;;;;16.05;3.30;;;3.70;99.90;;;;;;5059024;28;20041;-67
2022/02/08 07:08:11;;;;;;;14.13;2.90;;;3.70;99.90;;;;;;5071593;28;20155;-68
2022/02/08 07:10:42;;;;;;;12.95;3.72;;;3.70;99.90;;;;;;5051722;28;20453;-68
2022/02/08 07:13:10;;;;;;;13.02;3.38;;;3.60;99.90;;;;;;5035645;28;20503;-69
2022/02/08 07:15:38;;;;;;;10.65;3.05;;;3.60;99.90;;;;;;5050850;28;20106;-67
2022/02/08 07:18:05;;;;;;;7.95;2.72;;;3.60;99.90;;;;;;5071556;28;20072;-69
2022/02/08 07:20:34;;;;;;;11.13;3.22;;;3.60;99.90;;;;;;5062914;28;20439;-67
2022/02/08 07:23:01;;;;;;;13.00;3.00;;;3.70;99.90;;;;;;5068635;28;20094;-67
2022/02/08 07:25:34;;;;;;;13.70;3.22;;;3.70;99.90;;;;;;5045434;28;20040;-66
2022/02/08 07:28:02;;;;;;;13.98;3.55;;;3.60;99.90;;;;;;5070319;28;20124;-66
2022/02/08 07:30:33;;;;;;;11.88;3.10;;;3.60;99.90;;;;;;5044074;28;20110;-67
2022/02/08 07:33:00;;;;;;;14.70;3.88;;;3.70;99.90;;;;;;5056425;28;20127;-66
2022/02/08 07:35:41;;;;;;;10.10;3.30;;;3.70;99.90;;;;;;5071040;28;20048;-67
2022/02/08 07:38:18;;;;;;;13.75;3.20;;;3.60;99.90;;;;;;5070615;28;20136;-68
2022/02/08 07:43:20;;;;;;;9.80;3.17;;;3.60;99.90;;;;;;5069135;28;20573;-69
2022/02/08 07:46:19;;;;;;;11.10;3.83;;;3.60;99.90;;;;;;5050176;28;20090;-68
2022/02/08 07:48:47;;;;;;;12.93;3.17;;;3.60;99.90;;;;;;5055384;28;20052;-67
2022/02/08 07:51:14;;;;;;;10.05;3.40;;;3.70;99.90;;;;;;5064093;28;20108;-68
2022/02/08 07:53:41;;;;;;;13.02;3.17;;;3.70;99.90;;;;;;5067967;28;20044;-68
2022/02/08 07:56:12;;;;;;;18.30;4.10;;;3.70;99.90;;;;;;5048914;28;20148;-67
2022/02/08 07:58:39;;;;;;;14.65;3.42;;;3.70;99.90;;;;;;5064473;28;20083;-68
2022/02/08 08:01:08;;;;;;;9.40;2.97;;;3.70;99.90;;;;;;5051780;28;20036;-68
2022/02/08 08:03:40;;;;;;;13.43;3.42;;;3.70;99.90;;;;;;5070879;28;20513;-68
2022/02/08 08:06:09;;;;;;;13.38;3.25;;;3.80;99.90;;;;;;5057036;28;20041;-67
2022/02/08 08:08:37;;;;;;;15.25;3.03;;;3.80;99.90;;;;;;5069687;28;20054;-68
2022/02/08 08:11:09;;;;;;;11.43;3.20;;;3.90;99.90;;;;;;5069035;28;20040;-68
2022/02/08 08:13:48;;;;;;;;;;;3.80;99.90;;;;;;5052472;28;20043;-68
2022/02/08 08:16:22;;;;;;;13.50;3.55;;;3.90;99.90;;;;;;5051242;28;19924;-67
2022/02/08 08:19:05;;;;;;;12.50;3.35;;;3.80;99.90;;;;;;5068986;28;20056;-67
2022/02/08 08:21:33;;;;;;;10.65;2.95;;;3.90;99.90;;;;;;5069059;28;20044;-69
2022/02/08 08:24:03;;;;;;;8.95;3.90;;;3.90;99.90;;;;;;5035393;28;20131;-67
2022/02/08 08:26:31;;;;;;;16.70;3.05;;;3.90;99.90;;;;;;5057299;28;20049;-68
2022/02/08 08:28:58;;;;;;;15.43;3.20;;;4.00;99.90;;;;;;5057833;28;20071;-68
2022/02/08 08:31:27;;;;;;;14.50;3.17;;;4.00;99.90;;;;;;5063819;28;20068;-68
2022/02/08 08:34:09;;;;;;;11.10;3.35;;;4.00;99.90;;;;;;5061466;28;20051;-70
2022/02/08 08:36:37;;;;;;;11.25;3.50;;;4.00;99.90;;;;;;5057260;28;20493;-67
2022/02/08 08:39:06;;;;;;;16.33;3.45;;;4.00;99.90;;;;;;5051801;28;20116;-68
2022/02/08 08:51:51;;;;;;;12.68;2.95;;;4.30;99.90;;;;;;5062247;28;20041;-68
2022/02/08 08:54:19;;;;;;;12.52;2.72;;;4.30;99.90;;;;;;5062973;28;20487;-68
2022/02/08 08:56:49;;;;;;;11.57;3.00;;;4.40;99.90;;;;;;5048377;28;20358;-67
2022/02/08 08:59:17;;;;;;;11.35;2.70;;;4.40;99.90;;;;;;5049784;28;20507;-66
2022/02/08 09:01:46;;;;;;;7.93;2.95;;;4.40;99.90;;;;;;5055206;28;20045;-67
2022/02/08 09:04:15;;;;;;;9.70;2.50;;;4.40;99.90;;;;;;5067514;28;20128;-68
2022/02/08 09:06:44;;;;;;;6.90;2.10;;;4.60;99.90;;;;;;5040002;28;20041;-68
2022/02/08 09:09:14;;;;;;;8.02;2.15;;;4.50;99.90;;;;;;5065391;28;20045;-67
2022/02/08 09:20:33;;;;;;;8.88;2.28;;;4.60;99.90;;;;;;5069277;28;20513;-67
2022/02/08 09:25:44;;;;;;;9.32;2.42;;;4.70;99.90;;;;;;5069760;28;20416;-68
2022/02/08 09:30:37;;;;;;;7.00;2.33;;;4.60;99.90;;;;;;5069381;28;20529;-67
2022/02/08 09:33:04;;;;;;;10.40;2.65;;;4.60;99.90;;;;;;5051012;28;20049;-67
2022/02/08 09:35:32;;;;;;;5.20;2.72;;;4.60;99.90;;;;;;5069331;28;20525;-68
2022/02/08 09:37:59;;;;;;;8.98;3.53;;;4.50;99.90;;;;;;5069219;28;20086;-67
2022/02/08 09:40:27;;;;;;;7.63;2.40;;;4.50;99.90;;;;;;5069476;28;20040;-69
2022/02/08 09:42:56;;;;;;;12.57;3.20;;;4.40;99.90;;;;;;5068088;28;20045;-69
2022/02/08 09:45:24;;;;;;;12.93;3.60;;;4.40;99.90;;;;;;5068834;28;20047;-68
2022/02/08 09:50:28;;;;;;;10.43;3.50;;;4.40;99.90;;;;;;5065675;28;20079;-67
2022/02/08 09:52:59;;;;;;;13.35;3.28;;;4.50;99.90;;;;;;5064205;28;20483;-68
2022/02/08 09:55:36;;;;;;;10.40;3.42;;;4.50;99.90;;;;;;5066396;28;20523;-67
2022/02/08 09:58:05;;;;;;;9.90;3.10;;;4.60;99.90;;;;;;5053920;28;20613;-66
2022/02/08 10:00:35;;;;;;;11.95;3.58;;;4.70;99.90;;;;;;5070347;28;20044;-67
2022/02/08 10:03:16;;;;;;;10.32;3.45;;;4.60;99.90;;;;;;5059884;28;20177;-66
2022/02/08 10:05:50;;;;;;;9.52;2.95;;;4.60;99.90;;;;;;5069930;28;20049;-68
2022/02/08 10:08:18;;;;;;;12.13;3.38;;;4.60;99.90;;;;;;5071531;28;20423;-68
2022/02/08 10:10:46;;;;;;;13.90;3.83;;;4.70;99.90;;;;;;5069085;28;20041;-69
2022/02/08 10:13:39;;;;;;;12.20;3.70;;;4.70;99.90;;;;;;5072426;28;20491;-67
2022/02/08 10:24:08;;;;;;;17.23;3.60;;;4.70;99.90;;;;;;5065039;28;20055;-67
2022/02/08 10:29:36;;;;;;;14.23;3.85;;;4.70;99.90;;;;;;5071568;28;20054;-68
2022/02/08 10:32:31;;;;;;;13.35;3.88;;;4.80;99.90;;;;;;5046736;28;20045;-68
2022/02/08 10:37:55;;;;;;;13.70;3.20;;;4.90;99.90;;;;;;5064318;28;20135;-66
2022/02/08 10:40:22;;;;;;;12.27;2.92;;;4.90;99.90;;;;;;5070173;28;20395;-67
2022/02/08 10:42:56;;;;;;;13.32;2.95;;;5.00;99.90;;;;;;5069937;28;20058;-68
2022/02/08 10:45:32;;;;;;;13.15;3.28;;;5.00;99.90;;;;;;5070232;28;20279;-68
2022/02/08 10:48:08;;;;;;;14.43;3.08;;;5.00;99.90;;;;;;5052853;28;20123;-67
2022/02/08 10:50:47;;;;;;;11.85;3.38;;;5.00;99.90;;;;;;5070306;28;20037;-68
2022/02/08 10:53:16;;;;;;;11.75;2.95;;;5.00;99.90;;;;;;5070717;28;20444;-68
2022/02/08 10:55:56;;;;;;;16.80;4.22;;;5.10;99.90;;;;;;5071543;28;20045;-68
2022/02/08 11:03:42;;;;;;;11.90;3.38;;;5.20;99.90;;;;;;5063945;28;20075;-69
2022/02/08 11:16:57;;;;;;;13.55;2.92;;;5.30;99.90;;;;;;5069981;28;20036;-66
2022/02/08 11:19:37;;;;;;;11.15;2.95;;;5.40;99.90;;;;;;5062327;28;20051;-67
2022/02/08 11:22:23;;;;;;;13.90;3.08;;;5.40;99.90;;;;;;5070570;28;20044;-68
2022/02/08 11:24:57;;;;;;;11.65;2.95;;;5.40;99.90;;;;;;5070386;28;20056;-68
2022/02/08 11:27:40;;;;;;;10.77;3.05;;;5.40;99.90;;;;;;5068972;28;20045;-68
2022/02/08 11:30:16;;;;;;;13.35;3.28;;;5.50;99.90;;;;;;5070505;28;20041;-66
2022/02/08 11:49:37;;;;;;;;;;;5.40;99.90;;;;;;5069953;28;20395;-67
2022/02/08 12:07:27;;;;;;;;;;;5.30;99.90;;;;;;5066342;28;20359;-67
2022/02/08 12:10:09;;;;;;;;;;;5.30;99.90;;;;;;5069207;28;20452;-66
2022/02/08 12:13:06;;;;;;;;;;;5.50;99.90;;;;;;5067156;28;19920;-66
2022/02/08 12:48:56;;;;;;;;;;;6.20;99.90;;;;;;5026285;28;19960;-66
2022/02/08 12:52:27;;;;;;;;;;;6.30;99.90;;;;;;5025663;28;20457;-69
2022/02/08 12:57:28;;;;;;;;;;;6.60;99.90;;;;;;5024463;28;20044;-68
2022/02/08 13:00:52;;;;;;;;;;;6.60;99.90;;;;;;5026562;28;19924;-68
2022/02/08 14:06:58;;;;;;;6.75;2.30;;;6.70;99.90;;;;;;5070912;28;20087;-69
2022/02/08 14:09:54;;;;;;;13.05;2.60;;;6.70;99.90;;;;;;5060167;28;20048;-68
2022/02/08 14:17:33;;;;;;;8.15;2.05;;;6.80;99.90;;;;;;5067560;28;20494;-66
2022/02/08 14:25:29;;;;;;;5.70;2.15;;;6.80;99.90;;;;;;5071998;28;20048;-68
2022/02/08 14:30:50;;;;;;;7.30;2.30;;;6.70;99.90;;;;;;5072654;28;20051;-68
2022/02/08 15:06:57;;;;;;;7.53;2.72;;;6.70;99.90;;;;;;5019950;28;20050;-69
2022/02/08 15:09:26;;;;;;;7.40;2.90;;;6.70;99.90;;;;;;5023042;28;20045;-67
2022/02/08 15:12:07;;;;;;;;;;;6.60;99.90;;;;;;5001916;28;19932;-69
2022/02/08 15:14:47;;;;;;;;;;;6.70;99.90;;;;;;5022676;28;19964;-68
2022/02/08 15:17:14;;;;;;;;;;;6.70;99.90;;;;;;5036464;28;20367;-68
2022/02/08 15:19:44;;;;;;;;;;;6.70;99.90;;;;;;5070499;28;19924;-67
2022/02/08 15:22:11;;;;;;;;;;;6.70;99.90;;;;;;5070350;28;19940;-67
2022/02/08 15:24:40;;;;;;;;;;;6.70;99.90;;;;;;5072195;28;19920;-69
2022/02/08 15:27:09;;;;;;;;;;;6.70;99.90;;;;;;5053363;28;19924;-65
2022/02/08 15:29:37;;;;;;;;;;;6.70;99.90;;;;;;5053689;28;19924;-67
2022/02/08 15:32:07;;;;;;;;;;;6.70;99.90;;;;;;5064259;28;20478;-67
2022/02/08 15:34:34;;;;;;;;;;;6.60;99.90;;;;;;5052550;28;20438;-69
2022/02/08 15:37:01;;;;;;;;;;;6.60;99.90;;;;;;5070890;28;19939;-68
2022/02/08 15:39:28;;;;;;;;;;;6.70;99.90;;;;;;5071833;28;19921;-67
2022/02/08 15:41:55;;;;;;;;;;;6.60;99.90;;;;;;5052620;28;19924;-68
2022/02/08 15:44:25;;;;;;;;;;;6.60;99.90;;;;;;5069125;28;19931;-67
2022/02/08 15:46:53;;;;;;;;;;;6.60;99.90;;;;;;5069305;28;19924;-67
2022/02/08 15:49:20;;;;;;;;;;;6.60;99.90;;;;;;5049147;28;19986;-67
2022/02/08 15:51:55;;;;;;;;;;;6.60;99.90;;;;;;5052751;28;19947;-68
2022/02/08 15:54:33;;;;;;;;;;;6.60;99.90;;;;;;5070381;28;20004;-69
2022/02/08 16:08:12;;;;;;;;;;;6.60;99.90;;;;;;5007255;28;19925;-68
2022/02/08 16:11:01;;;;;;;;;;;6.60;99.90;;;;;;5007064;28;20414;-67
2022/02/08 16:13:40;;;;;;;;;;;6.50;99.90;;;;;;4993134;28;19921;-66
2022/02/08 16:16:23;;;;;;;;;;;6.50;99.90;;;;;;5007759;28;19921;-68
2022/02/08 16:19:02;;;;;;;;;;;6.50;99.90;;;;;;5006545;28;19922;-68
2022/02/08 16:24:47;;;;;;;;;;;6.50;99.90;;;;;;4996256;28;19925;-68
2022/02/08 16:27:24;;;;;;;;;;;6.50;99.90;;;;;;4990427;28;20027;-68
2022/02/08 16:49:32;;;;;;;;;;;6.50;99.90;;;;;;5057885;28;19931;-67
2022/02/08 16:59:46;;;;;;;;;;;6.40;99.90;;;;;;5069718;28;20375;-68
2022/02/08 17:02:19;;;;;;;;;;;6.40;99.90;;;;;;5068286;28;20341;-68
2022/02/08 17:04:46;;;;;;;;;;;6.40;99.90;;;;;;5070908;28;19930;-69
2022/02/08 17:07:13;;;;;;;;;;;6.40;99.90;;;;;;5071914;28;19925;-69
2022/02/08 17:12:18;;;;;;;;;;;6.50;99.90;;;;;;5071401;28;19920;-69
2022/02/08 17:14:54;;;;;;;;;;;6.40;99.90;;;;;;5070917;28;19924;-69
2022/02/08 17:47:39;;;;;;;;;;;6.30;99.90;;;;;;5063942;28;20031;-69
2022/02/08 17:50:08;;;;;;;;;;;6.40;99.90;;;;;;5069697;28;20379;-68
2022/02/08 17:52:36;;;;;;;;;;;6.30;99.90;;;;;;5064223;28;20276;-68
2022/02/08 17:55:05;;;;;;;;;;;6.30;99.90;;;;;;5069622;28;20021;-68
2022/02/08 17:57:32;;;;;;;;;;;6.30;99.90;;;;;;5069209;28;20409;-69
2022/02/08 17:59:59;;;;;;;;;;;6.30;99.90;;;;;;5070178;28;20306;-68
2022/02/08 18:02:26;;;;;;;;;;;6.30;99.90;;;;;;5069267;28;19924;-68
2022/02/08 18:04:59;;;;;;;;;;;6.30;99.90;;;;;;5070889;28;20023;-68
2022/02/08 18:07:27;;;;;;;;;;;6.30;99.90;;;;;;5069912;28;19977;-68
2022/02/08 18:09:55;;;;;;;;;;;6.40;99.90;;;;;;5071871;28;20133;-67
2022/02/08 18:12:25;;;;;;;;;;;6.40;99.90;;;;;;5086845;28;19929;-69
2022/02/08 18:15:03;;;;;;;;;;;6.30;99.90;;;;;;5070414;28;19974;-68
2022/02/08 18:17:35;;;;;;;;;;;6.30;99.90;;;;;;5072726;28;19963;-68
2022/02/08 18:20:24;;;;;;;;;;;6.30;99.90;;;;;;5053986;28;20386;-68
2022/02/08 19:03:20;;;;;;;;;;;6.40;99.90;;;;;;5062313;28;19928;-67
2022/02/08 19:04:39;;;;;;;;;;;6.30;99.90;;;;;;5073853;28;19931;-68
2022/02/08 19:22:10;;;;;;;;;;;6.40;99.90;;;;;;5068289;28;19930;-69
2022/02/08 19:24:37;;;;;;;;;;;6.40;99.90;;;;;;5051412;28;20607;-68
2022/02/08 19:27:05;;;;;;;;;;;6.40;99.90;;;;;;5069286;28;20061;-68
2022/02/08 19:29:34;;;;;;;;;;;6.40;99.90;;;;;;5069867;28;19932;-68
2022/02/08 19:32:05;;;;;;;;;;;6.40;99.90;;;;;;5068512;28;19924;-70
2022/02/08 19:34:37;;;;;;;;;;;6.50;99.90;;;;;;5054242;28;20471;-69
2022/02/08 19:37:06;;;;;;;;;;;6.40;99.90;;;;;;5069374;28;19925;-68
2022/02/08 19:39:35;;;;;;;;;;;6.40;99.90;;;;;;5055016;28;20033;-68
2022/02/08 19:42:03;;;;;;;;;;;6.40;99.90;;;;;;5069440;28;19966;-68
2022/02/08 19:44:35;;;;;;;;;;;6.40;99.90;;;;;;5065696;28;19925;-69
2022/02/08 19:47:03;;;;;;;;;;;6.40;99.90;;;;;;5071558;28;19924;-67
2022/02/08 19:49:30;;;;;;;;;;;6.40;99.90;;;;;;5052322;28;19925;-69
2022/02/08 19:51:58;;;;;;;;;;;6.40;99.90;;;;;;5050144;28;19987;-68
2022/02/08 19:54:30;;;;;;;;;;;6.40;99.90;;;;;;5068503;28;19954;-69
2022/02/08 19:57:16;;;;;;;;;;;6.50;99.90;;;;;;5056728;28;19931;-66
2022/02/08 19:59:43;;;;;;;;;;;6.50;99.90;;;;;;5072727;28;19935;-69
2022/02/08 20:02:13;;;;;;;;;;;6.50;99.90;;;;;;5070870;28;19924;-68
2022/02/08 20:04:45;;;;;;;;;;;6.40;99.90;;;;;;5039710;28;19924;-68
2022/02/08 20:07:13;;;;;;;;;;;6.40;99.90;;;;;;5049958;28;19974;-69
2022/02/08 20:09:40;;;;;;;;;;;6.40;99.90;;;;;;5072826;28;19924;-68
2022/02/08 20:12:26;;;;;;;;;;;6.40;99.90;;;;;;5069965;28;19955;-68
2022/02/08 20:15:01;;;;;;;;;;;6.40;99.90;;;;;;5054553;28;19931;-69
2022/02/08 20:17:29;;;;;;;;;;;6.40;99.90;;;;;;5071884;28;19927;-67
2022/02/08 20:19:57;;;;;;;;;;;6.40;99.90;;;;;;5054508;28;20430;-68
2022/02/08 20:22:24;;;;;;;;;;;6.40;99.90;;;;;;5071564;28;19921;-67
2022/02/08 20:24:53;;;;;;;;;;;6.40;99.90;;;;;;5073482;28;19925;-68
2022/02/08 20:27:35;;;;;;;;;;;6.40;99.90;;;;;;5071422;28;19967;-68
2022/02/08 20:30:02;;;;;;;;;;;6.40;99.90;;;;;;5058504;28;20020;-68
2022/02/08 20:32:30;;;;;;;;;;;6.50;99.90;;;;;;5070888;28;19924;-68
2022/02/08 20:34:58;;;;;;;;;;;6.50;99.90;;;;;;5053767;28;19920;-67
2022/02/08 20:37:26;;;;;;;;;;;6.50;99.90;;;;;;5052311;28;19924;-66
2022/02/08 20:39:55;;;;;;;;;;;6.50;99.90;;;;;;5040519;28;19924;-69
2022/02/08 20:42:25;;;;;;;;;;;6.50;99.90;;;;;;5048301;28;19978;-69
2022/02/08 20:44:53;;;;;;;;;;;6.50;99.90;;;;;;5054522;28;19928;-68
2022/02/08 20:47:24;;;;;;;;;;;6.50;99.90;;;;;;5054038;28;19928;-68
2022/02/08 20:49:58;;;;;;;;;;;6.50;99.90;;;;;;5045564;28;20330;-70
2022/02/08 20:52:26;;;;;;;;;;;6.50;99.90;;;;;;5065183;28;20382;-68
2022/02/08 20:55:05;;;;;;;;;;;6.50;99.90;;;;;;5035425;28;19928;-68
2022/02/08 20:57:37;;;;;;;;;;;6.40;99.90;;;;;;5063498;28;19924;-67
2022/02/08 21:00:05;;;;;;;;;;;6.40;99.90;;;;;;5047397;28;19963;-68
2022/02/08 21:02:43;;;;;;;;;;;6.50;99.90;;;;;;5072073;28;19936;-68
2022/02/08 21:07:53;;;;;;;;;;;6.50;99.90;;;;;;5050952;28;19928;-68
2022/02/08 21:10:24;;;;;;;;;;;6.50;99.90;;;;;;5064645;28;19921;-68
2022/02/08 21:15:29;;;;;;;;;;;6.40;99.90;;;;;;5056768;28;19938;-68
2022/02/08 21:17:59;;;;;;;;;;;6.50;99.90;;;;;;5061152;28;20322;-68
2022/02/08 21:20:27;;;;;;;;;;;6.50;99.90;;;;;;5029819;28;19932;-68
2022/02/08 21:22:58;;;;;;;;;;;6.50;99.90;;;;;;5051307;28;19927;-69
2022/02/08 21:25:34;;;;;;;;;;;6.50;99.90;;;;;;5082235;28;19986;-67
2022/02/08 21:28:04;;;;;;;;;;;6.50;99.90;;;;;;5063851;28;19924;-68
2022/02/08 21:49:50;;;;;;;;;;;6.60;99.90;;;;;;5075544;28;20301;-68